Elk Horn, Iowa
Current Conditions -  °F | °C
As of 4:35 PM on Sunday 23 Nov 2014 (Local Time) from KADU Reporting Station
Drizzle Drizzle  
Wind Chill: 32°   Ceiling: Unl
Heat Index: 41°   Visibility: 10mi
Dew Point: 36°   Wind: 20mph
Humidity: 81%   Direction: 320°NW
Pressure: 29.46"   Gusts: 29mph
Location:  41.59°N, 95.06°W
Report Text: KADU 232235Z AUTO 32017G25KT 10SM DZ SCT050 05/02 A2946 RMK AO2
Loading
Personal Weather Stations






























Interactive Weather Map New forecast layout! Learn more

10-Day Weather Forecast

Advertisements
Track Severe Weather on mobile